createdAt,value
2023-05-18T00:01:12.534Z,101354.31
2023-05-18T00:03:15.585Z,101355.44
2023-05-18T00:05:18.200Z,101344.31
2023-05-18T00:07:20.038Z,101346.25
2023-05-18T00:09:21.846Z,101345.91
2023-05-18T00:11:23.516Z,101339.94
2023-05-18T00:13:25.325Z,101346.72
2023-05-18T00:15:27.795Z,101344.00
2023-05-18T00:17:30.985Z,101346.25
2023-05-18T00:19:33.932Z,101341.38
2023-05-18T00:21:36.999Z,101337.56
2023-05-18T00:23:40.385Z,101337.56
2023-05-18T00:25:42.285Z,101339.75
2023-05-18T00:27:44.917Z,101335.72
2023-05-18T00:29:47.292Z,101337.09
2023-05-18T00:31:49.074Z,101339.78
2023-05-18T00:33:52.313Z,101337.09
2023-05-18T00:35:57.490Z,101334.16
2023-05-18T00:37:59.232Z,101333.34
2023-05-18T00:40:00.889Z,101345.84
2023-05-18T00:42:04.834Z,101335.63
2023-05-18T00:44:06.763Z,101335.13
2023-05-18T00:46:08.977Z,101337.28
2023-05-18T00:48:10.796Z,101332.44
2023-05-18T00:50:14.532Z,101330.25
2023-05-18T00:52:16.498Z,101335.97
2023-05-18T00:54:18.934Z,101337.56
2023-05-18T00:56:22.681Z,101339.19
2023-05-18T00:58:25.338Z,101334.88
2023-05-18T01:00:28.124Z,101336.22
2023-05-18T01:02:30.153Z,101336.03
2023-05-18T01:04:31.974Z,101331.97
2023-05-18T01:06:35.131Z,101336.03
2023-05-18T01:08:37.718Z,101335.75
2023-05-18T01:10:43.463Z,101333.09
2023-05-18T01:12:50.880Z,101330.09
2023-05-18T01:14:59.660Z,101333.88
2023-05-18T01:17:10.945Z,101328.44
2023-05-18T01:19:34.116Z,101323.28
2023-05-18T01:21:56.778Z,101325.19
2023-05-18T01:24:12.271Z,101322.47
2023-05-18T01:26:17.038Z,101321.09
2023-05-18T01:28:20.832Z,101327.06
2023-05-18T01:30:23.577Z,101328.09
2023-05-18T01:32:25.584Z,101321.09
2023-05-18T01:34:27.446Z,101329.72
2023-05-18T01:36:29.193Z,101329.19
2023-05-18T01:38:30.996Z,101325.44
2023-05-18T01:40:37.338Z,101324.41
2023-05-18T01:42:51.637Z,101320.56
2023-05-18T01:44:59.135Z,101325.44
2023-05-18T01:47:04.478Z,101328.16
2023-05-18T01:49:16.921Z,101321.09
2023-05-18T01:51:20.933Z,101322.97
2023-05-18T01:53:27.917Z,101320.56
2023-05-18T01:55:31.189Z,101313.50
2023-05-18T01:57:35.080Z,101308.91
2023-05-18T01:59:38.992Z,101308.09
2023-05-18T02:01:40.889Z,101315.19
2023-05-18T02:03:43.872Z,101316.25
2023-05-18T02:05:45.715Z,101314.34
2023-05-18T02:07:50.843Z,101309.47
2023-05-18T02:09:52.480Z,101313.81
2023-05-18T02:11:54.341Z,101313.28
2023-05-18T02:13:56.045Z,101309.47
2023-05-18T02:15:59.401Z,101313.22
2023-05-18T02:18:01.237Z,101312.97
2023-05-18T02:20:02.911Z,101313.81
2023-05-18T02:22:05.090Z,101308.09
2023-05-18T02:24:07.750Z,101312.19
2023-05-18T02:26:09.476Z,101311.88
2023-05-18T02:28:11.475Z,101312.44
2023-05-18T02:30:15.796Z,101308.66
2023-05-18T02:32:19.269Z,101309.75
2023-05-18T02:34:21.151Z,101311.72
2023-05-18T02:36:22.746Z,101308.50
2023-05-18T02:38:25.589Z,101312.06
2023-05-18T02:40:27.208Z,101316.94
2023-05-18T02:42:31.324Z,101310.75
2023-05-18T02:44:33.364Z,101310.78
2023-05-18T02:46:35.071Z,101315.38
2023-05-18T02:48:38.253Z,101317.00
2023-05-18T02:50:40.064Z,101314.28
2023-05-18T02:52:42.026Z,101307.28
2023-05-18T02:54:43.798Z,101307.81
2023-05-18T02:56:45.546Z,101308.38
2023-05-18T02:58:47.218Z,101300.81
2023-05-18T03:00:49.578Z,101305.13
2023-05-18T03:02:53.469Z,101314.88
2023-05-18T03:04:56.563Z,101310.25
2023-05-18T03:06:58.476Z,101308.63
2023-05-18T03:09:00.171Z,101304.56
2023-05-18T03:11:02.021Z,101309.97
2023-05-18T03:13:03.945Z,101308.34
2023-05-18T03:15:06.725Z,101302.09
2023-05-18T03:17:08.440Z,101311.03
2023-05-18T03:19:15.292Z,101308.59
2023-05-18T03:21:18.267Z,101305.88
2023-05-18T03:23:21.020Z,101310.47
2023-05-18T03:25:22.756Z,101312.88
2023-05-18T03:27:24.461Z,101312.34
2023-05-18T03:29:26.170Z,101312.03
2023-05-18T03:31:28.212Z,101310.44
2023-05-18T03:33:29.854Z,101313.16
2023-05-18T03:35:31.731Z,101319.91
2023-05-18T03:37:34.920Z,101316.38
2023-05-18T03:39:36.607Z,101322.91
2023-05-18T03:41:38.295Z,101324.81
2023-05-18T03:43:42.280Z,101322.38
2023-05-18T03:45:44.233Z,101327.03
2023-05-18T03:47:50.931Z,101331.63
2023-05-18T03:49:52.917Z,101326.22
2023-05-18T03:51:54.719Z,101329.47
2023-05-18T03:53:58.484Z,101335.69
2023-05-18T03:56:02.490Z,101329.19
2023-05-18T03:58:05.570Z,101338.13
2023-05-18T04:00:08.229Z,101341.91
2023-05-18T04:02:10.027Z,101340.28
2023-05-18T04:04:11.657Z,101339.47
2023-05-18T04:06:13.714Z,101342.72
2023-05-18T04:08:15.810Z,101352.16
2023-05-18T04:10:19.404Z,101344.59
2023-05-18T04:12:23.338Z,101348.13
2023-05-18T04:14:25.263Z,101352.72
2023-05-18T04:16:27.761Z,101345.44
2023-05-18T04:18:29.693Z,101346.22
2023-05-18T04:20:31.567Z,101351.63
2023-05-18T04:22:35.780Z,101348.13
2023-05-18T04:24:37.423Z,101356.22
2023-05-18T04:26:41.068Z,101358.94
2023-05-18T04:28:42.727Z,101356.22
2023-05-18T04:30:44.612Z,101360.03
2023-05-18T04:32:46.585Z,101360.81
2023-05-18T04:34:48.467Z,101357.84
2023-05-18T04:36:50.181Z,101358.66
2023-05-18T04:38:52.322Z,101365.16
2023-05-18T04:40:53.995Z,101364.06
2023-05-18T04:42:57.367Z,101368.13
2023-05-18T04:44:59.367Z,101363.81
2023-05-18T04:47:01.257Z,101360.28
2023-05-18T04:49:02.997Z,101355.16
2023-05-18T04:51:04.673Z,101358.41
2023-05-18T04:53:06.529Z,101363.00
2023-05-18T04:55:09.116Z,101363.50
2023-05-18T04:57:11.454Z,101363.50
2023-05-18T04:59:14.567Z,101362.13
2023-05-18T05:01:16.326Z,101363.75
2023-05-18T05:03:18.205Z,101370.50
2023-05-18T05:05:20.788Z,101377.81
2023-05-18T05:07:22.574Z,101377.31
2023-05-18T05:09:24.728Z,101369.22
2023-05-18T05:11:27.963Z,101372.44
2023-05-18T05:13:29.900Z,101372.72
2023-05-18T05:15:33.104Z,101374.91
2023-05-18T05:17:35.038Z,101373.81
2023-05-18T05:19:37.170Z,101374.34
2023-05-18T05:21:38.752Z,101374.34
2023-05-18T05:23:40.376Z,101370.81
2023-05-18T05:25:42.072Z,101372.69
2023-05-18T05:27:43.911Z,101372.44
2023-05-18T05:29:46.980Z,101374.06
2023-05-18T05:31:50.053Z,101372.19
2023-05-18T05:33:51.746Z,101374.63
2023-05-18T05:35:53.541Z,101378.16
2023-05-18T05:37:55.474Z,101380.56
2023-05-18T05:39:57.080Z,101383.56
2023-05-18T05:41:58.684Z,101384.63
2023-05-18T05:44:00.437Z,101377.88
2023-05-18T05:46:02.812Z,101379.22
2023-05-18T05:48:06.384Z,101381.41
2023-05-18T05:50:08.320Z,101388.13
2023-05-18T05:52:09.958Z,101384.34
2023-05-18T05:54:11.546Z,101384.91
2023-05-18T05:56:13.185Z,101385.44
2023-05-18T05:58:14.861Z,101388.69
2023-05-18T06:00:17.225Z,101384.63
2023-05-18T06:02:19.042Z,101389.22
2023-05-18T06:04:22.134Z,101388.97
2023-05-18T06:06:23.984Z,101389.22
2023-05-18T06:08:25.942Z,101385.69
2023-05-18T06:10:27.876Z,101384.88
2023-05-18T06:12:29.569Z,101386.50
2023-05-18T06:14:31.262Z,101387.00
2023-05-18T06:16:32.975Z,101384.84
2023-05-18T06:18:34.869Z,101390.81
2023-05-18T06:20:38.795Z,101384.56
2023-05-18T06:22:40.540Z,101394.31
2023-05-18T06:24:42.212Z,101391.06
2023-05-18T06:26:43.793Z,101394.03
2023-05-18T06:28:45.359Z,101397.00
2023-05-18T06:30:46.947Z,101391.84
2023-05-18T06:32:48.804Z,101398.06
2023-05-18T06:34:50.495Z,101394.53
2023-05-18T06:36:53.854Z,101396.69
2023-05-18T06:38:55.465Z,101402.88
2023-05-18T06:40:57.076Z,101400.34
2023-05-18T06:42:58.663Z,101404.34
2023-05-18T06:45:00.335Z,101401.06
2023-05-18T06:47:01.979Z,101404.81
2023-05-18T06:49:04.153Z,101400.41
2023-05-18T06:51:05.816Z,101398.53
2023-05-18T06:53:08.778Z,101400.09
2023-05-18T06:55:10.612Z,101402.47
2023-05-18T06:57:12.364Z,101393.72
2023-05-18T06:59:13.980Z,101396.16
2023-05-18T07:01:15.956Z,101388.75
2023-05-18T07:03:17.666Z,101394.38
2023-05-18T07:05:19.559Z,101387.13
2023-05-18T07:07:21.352Z,101390.88
2023-05-18T07:09:25.403Z,101387.66
2023-05-18T07:11:29.492Z,101389.78
2023-05-18T07:13:31.344Z,101392.75
2023-05-18T07:15:41.769Z,101388.56
2023-05-18T07:17:43.500Z,101394.56
2023-05-18T07:19:45.121Z,101391.13
2023-05-18T07:21:46.761Z,101381.75
2023-05-18T07:23:48.478Z,101388.03
2023-05-18T07:25:51.535Z,101379.03
2023-05-18T07:27:54.143Z,101387.69
2023-05-18T07:29:55.884Z,101385.44
2023-05-18T07:31:57.727Z,101387.41
2023-05-18T07:33:59.625Z,101377.00
2023-05-18T07:36:01.185Z,101371.72
2023-05-18T07:38:02.804Z,101371.28
2023-05-18T07:40:05.140Z,101380.44
2023-05-18T07:42:08.812Z,101379.50
2023-05-18T07:44:10.643Z,101388.16
2023-05-18T07:46:12.320Z,101378.97
2023-05-18T07:48:14.028Z,101375.16
2023-05-18T07:50:15.734Z,101377.16
2023-05-18T07:52:17.553Z,101379.16
2023-05-18T07:54:19.138Z,101374.97
2023-05-18T07:56:20.924Z,101375.03
2023-05-18T07:58:23.897Z,101380.97
2023-05-18T08:00:25.513Z,101373.19
2023-05-18T08:02:27.222Z,101377.06
2023-05-18T08:04:29.088Z,101376.84
2023-05-18T08:06:30.706Z,101378.44
2023-05-18T08:08:32.314Z,101376.53
2023-05-18T08:10:33.983Z,101373.94
2023-05-18T08:12:35.700Z,101381.47
2023-05-18T08:14:38.626Z,101385.22
2023-05-18T08:16:40.239Z,101379.13
2023-05-18T08:18:42.197Z,101368.91
2023-05-18T08:20:43.919Z,101374.78
2023-05-18T08:22:45.548Z,101373.44
2023-05-18T08:24:47.198Z,101379.00
2023-05-18T08:26:48.782Z,101362.81
2023-05-18T08:28:50.379Z,101363.25
2023-05-18T08:30:53.642Z,101359.88
2023-05-18T08:32:55.335Z,101354.69
2023-05-18T08:34:57.189Z,101360.25
2023-05-18T08:36:58.769Z,101352.28
2023-05-18T08:39:00.527Z,101348.25
2023-05-18T08:41:15.043Z,101351.28
2023-05-18T08:43:21.457Z,101347.34
2023-05-18T08:45:32.798Z,101355.00
2023-05-18T08:47:37.803Z,101355.31
2023-05-18T08:49:41.731Z,101355.84
2023-05-18T08:51:46.544Z,101352.91
2023-05-18T08:53:52.477Z,101347.13
2023-05-18T08:55:54.452Z,101346.75
2023-05-18T08:57:59.097Z,101348.16
2023-05-18T09:00:01.827Z,101340.50
2023-05-18T09:02:04.958Z,101337.97
2023-05-18T09:04:09.548Z,101343.41
2023-05-18T09:06:11.495Z,101341.59
2023-05-18T09:08:13.574Z,101340.41
2023-05-18T09:10:15.368Z,101339.41
2023-05-18T09:12:18.904Z,101339.28
2023-05-18T09:14:20.852Z,101337.56
2023-05-18T09:16:22.559Z,101344.31
2023-05-18T09:18:26.161Z,101333.09
2023-05-18T09:20:31.027Z,101333.94
2023-05-18T09:22:33.327Z,101332.50
2023-05-18T09:24:35.008Z,101330.97
2023-05-18T09:26:36.879Z,101332.59
2023-05-18T09:28:40.324Z,101333.00
2023-05-18T09:30:42.690Z,101333.59
2023-05-18T09:32:46.782Z,101326.31
2023-05-18T09:34:48.926Z,101324.59
2023-05-18T09:36:52.059Z,101332.88
2023-05-18T09:38:53.725Z,101327.31
2023-05-18T09:40:55.496Z,101322.28
2023-05-18T09:42:57.086Z,101321.34
2023-05-18T09:44:58.790Z,101316.41
2023-05-18T09:47:00.974Z,101311.31
2023-05-18T09:49:04.092Z,101308.25
2023-05-18T09:51:06.330Z,101309.69
2023-05-18T09:53:10.232Z,101311.00
2023-05-18T09:55:12.764Z,101308.78
2023-05-18T09:57:14.460Z,101306.41
2023-05-18T09:59:16.396Z,101301.94
2023-05-18T10:01:18.136Z,101297.34
2023-05-18T10:03:21.512Z,101299.78
2023-05-18T10:05:24.642Z,101302.09
2023-05-18T10:07:26.324Z,101302.78
2023-05-18T10:09:29.350Z,101306.41
2023-05-18T10:11:35.146Z,101303.34
2023-05-18T10:13:36.885Z,101297.75
2023-05-18T10:15:46.031Z,101294.28
2023-05-18T10:17:48.970Z,101298.16
2023-05-18T10:19:54.590Z,101291.25
2023-05-18T10:21:56.281Z,101298.50
2023-05-18T10:23:59.537Z,101296.88
2023-05-18T10:26:05.106Z,101296.25
2023-05-18T10:28:10.069Z,101297.69
2023-05-18T10:30:14.228Z,101294.81
2023-05-18T10:32:17.224Z,101286.66
2023-05-18T10:34:19.067Z,101288.75
2023-05-18T10:36:23.500Z,101290.19
2023-05-18T10:38:28.714Z,101290.56
2023-05-18T10:40:30.650Z,101289.75
2023-05-18T10:42:34.936Z,101291.38
2023-05-18T10:44:39.407Z,101286.72
2023-05-18T10:46:41.815Z,101285.00
2023-05-18T10:48:48.040Z,101289.81
2023-05-18T10:50:50.725Z,101287.28
2023-05-18T10:52:53.327Z,101289.69
2023-05-18T10:54:55.277Z,101287.91
2023-05-18T10:56:57.076Z,101279.88
2023-05-18T10:59:00.233Z,101287.44
2023-05-18T11:01:05.325Z,101279.91
2023-05-18T11:03:10.572Z,101276.34
2023-05-18T11:05:12.753Z,101265.78
2023-05-18T11:07:15.884Z,101264.50
2023-05-18T11:09:23.512Z,101261.25
2023-05-18T11:11:25.332Z,101267.53
2023-05-18T11:13:29.475Z,101264.31
2023-05-18T11:16:08.774Z,101267.88
2023-05-18T11:18:13.787Z,101262.06
2023-05-18T11:20:17.448Z,101259.19
2023-05-18T11:22:19.075Z,101261.09
2023-05-18T11:24:40.792Z,101262.56
2023-05-18T11:26:43.654Z,101256.31
2023-05-18T11:28:45.358Z,101258.53
2023-05-18T11:30:49.900Z,101258.53
2023-05-18T11:32:53.185Z,101263.69
2023-05-18T11:34:55.566Z,101253.19
2023-05-18T11:36:57.154Z,101256.25
2023-05-18T11:39:03.952Z,101252.84
2023-05-18T11:41:06.580Z,101254.31
2023-05-18T11:43:08.195Z,101251.25
2023-05-18T11:45:11.513Z,101252.22
2023-05-18T11:47:13.232Z,101255.88
2023-05-18T11:49:19.900Z,101248.75
2023-05-18T11:51:21.609Z,101260.28
2023-05-18T11:53:24.096Z,101253.53
2023-05-18T11:55:37.522Z,101254.63
2023-05-18T11:57:39.867Z,101249.41
2023-05-18T11:59:43.572Z,101252.38
2023-05-18T12:01:45.423Z,101249.63
2023-05-18T12:03:48.575Z,101244.88
2023-05-18T12:05:51.835Z,101248.31
2023-05-18T12:07:53.887Z,101257.09
2023-05-18T12:09:58.193Z,101248.31
2023-05-18T12:12:01.162Z,101254.09
2023-05-18T12:14:03.401Z,101255.16
2023-05-18T12:16:06.424Z,101246.41
2023-05-18T12:18:08.121Z,101243.06
2023-05-18T12:20:11.252Z,101242.03
2023-05-18T12:22:14.662Z,101238.56
2023-05-18T12:24:16.282Z,101237.22
2023-05-18T12:26:17.855Z,101231.91
2023-05-18T12:28:19.531Z,101222.91
2023-05-18T12:30:22.784Z,101227.41
2023-05-18T12:32:24.736Z,101227.25
2023-05-18T12:34:28.783Z,101223.84
2023-05-18T12:36:30.376Z,101224.34
2023-05-18T12:38:33.694Z,101220.66
2023-05-18T12:40:36.506Z,101225.53
2023-05-18T12:42:38.110Z,101220.72
2023-05-18T12:44:41.179Z,101221.25
2023-05-18T12:46:43.129Z,101216.00
2023-05-18T12:48:47.652Z,101209.91
2023-05-18T12:50:50.774Z,101209.00
2023-05-18T12:52:52.719Z,101203.22
2023-05-18T12:54:56.874Z,101205.16
2023-05-18T12:59:00.879Z,101200.59
2023-05-18T13:01:07.689Z,101198.75
2023-05-18T13:03:13.827Z,101198.38
2023-05-18T13:05:24.129Z,101195.50
2023-05-18T13:07:26.227Z,101190.44
2023-05-18T13:09:27.862Z,101188.66
2023-05-18T13:11:30.844Z,101187.09
2023-05-18T13:13:32.948Z,101190.34
2023-05-18T13:15:36.492Z,101190.63
2023-05-18T13:17:38.481Z,101182.31
2023-05-18T13:19:40.130Z,101180.91
2023-05-18T13:21:42.260Z,101174.44
2023-05-18T13:23:44.037Z,101178.09
2023-05-18T13:25:45.803Z,101184.59
2023-05-18T13:27:48.786Z,101172.44
2023-05-18T13:29:50.399Z,101178.91
2023-05-18T13:31:52.073Z,101171.03
2023-05-18T13:33:53.769Z,101173.25
2023-05-18T13:35:55.355Z,101172.63
2023-05-18T13:37:57.230Z,101168.06
2023-05-18T13:39:58.857Z,101158.91
2023-05-18T13:42:00.467Z,101152.69
2023-05-18T13:44:03.865Z,101164.97
2023-05-18T13:46:05.609Z,101162.06
2023-05-18T13:48:09.425Z,101165.88
2023-05-18T13:50:11.748Z,101162.66
2023-05-18T13:52:13.434Z,101165.69
2023-05-18T13:54:15.035Z,101166.63
2023-05-18T13:56:16.706Z,101167.72
2023-05-18T13:58:18.345Z,101157.50
2023-05-18T14:00:21.555Z,101154.56
2023-05-18T14:02:23.208Z,101145.22
2023-05-18T14:04:24.853Z,101143.97
2023-05-18T14:06:26.456Z,101153.63
2023-05-18T14:08:29.628Z,101146.03
2023-05-18T14:10:31.581Z,101147.81
2023-05-18T14:12:33.781Z,101137.88
2023-05-18T14:14:35.479Z,101143.94
2023-05-18T14:16:38.487Z,101139.34
2023-05-18T14:18:40.249Z,101130.81
2023-05-18T14:20:41.943Z,101134.06
2023-05-18T14:22:43.541Z,101120.16
2023-05-18T14:24:45.118Z,101134.13
2023-05-18T14:26:46.721Z,101126.66
2023-05-18T14:28:48.721Z,101125.28
2023-05-18T14:30:50.374Z,101125.25
2023-05-18T14:32:53.435Z,101124.88
2023-05-18T14:34:55.170Z,101120.06
2023-05-18T14:36:56.890Z,101130.38
2023-05-18T14:38:58.524Z,101128.69
2023-05-18T14:41:00.170Z,101125.84
2023-05-18T14:43:01.738Z,101132.31
2023-05-18T14:45:04.128Z,101128.63
2023-05-18T14:47:06.036Z,101132.94
2023-05-18T14:49:09.109Z,101123.41
2023-05-18T14:51:10.768Z,101123.72
2023-05-18T14:53:12.497Z,101119.38
2023-05-18T14:55:14.136Z,101124.81
2023-05-18T14:57:15.899Z,101115.16
2023-05-18T14:59:17.488Z,101114.34
2023-05-18T15:01:19.980Z,101110.16
2023-05-18T15:03:22.834Z,101110.81
2023-05-18T15:05:26.538Z,101114.75
2023-05-18T15:07:28.229Z,101107.56
2023-05-18T15:09:29.860Z,101111.41
2023-05-18T15:11:31.511Z,101106.16
2023-05-18T15:13:33.129Z,101106.28
2023-05-18T15:15:34.749Z,101122.78
2023-05-18T15:17:36.384Z,101115.91
2023-05-18T15:19:37.992Z,101109.13
2023-05-18T15:21:41.006Z,101111.31
2023-05-18T15:23:42.675Z,101106.31
2023-05-18T15:25:44.837Z,101104.81
2023-05-18T15:27:46.397Z,101098.41
2023-05-18T15:29:48.252Z,101104.00
2023-05-18T15:31:50.034Z,101102.88
2023-05-18T15:33:51.904Z,101092.59
2023-05-18T15:35:53.468Z,101099.47
2023-05-18T15:37:56.655Z,101093.94
2023-05-18T15:39:58.468Z,101094.06
2023-05-18T15:42:00.140Z,101098.03
2023-05-18T15:44:02.033Z,101091.88
2023-05-18T15:46:04.449Z,101095.09
2023-05-18T15:48:06.777Z,101098.75
2023-05-18T15:50:08.989Z,101099.94
2023-05-18T15:52:11.023Z,101096.63
2023-05-18T15:54:14.024Z,101095.22
2023-05-18T15:56:15.651Z,101093.41
2023-05-18T15:58:17.323Z,101093.50
2023-05-18T16:00:19.515Z,101089.63
2023-05-18T16:02:22.585Z,101086.78
2023-05-18T16:04:25.368Z,101079.44
2023-05-18T16:06:27.025Z,101081.19
2023-05-18T16:08:29.426Z,101082.16
2023-05-18T16:10:33.730Z,101081.78
2023-05-18T16:12:36.998Z,101086.59
2023-05-18T16:14:38.617Z,101090.47
2023-05-18T16:16:43.257Z,101088.88
2023-05-18T16:18:44.935Z,101093.44
2023-05-18T16:20:46.585Z,101094.38
2023-05-18T16:22:48.232Z,101096.44
2023-05-18T16:24:49.829Z,101086.13
2023-05-18T16:26:52.829Z,101089.66
2023-05-18T16:28:54.443Z,101092.16
2023-05-18T16:30:56.114Z,101097.59
2023-05-18T16:32:57.833Z,101094.19
2023-05-18T16:34:59.435Z,101093.19
2023-05-18T16:37:01.010Z,101089.50
2023-05-18T16:39:02.820Z,101092.47
2023-05-18T16:41:05.349Z,101096.81
2023-05-18T16:43:08.911Z,101095.78
2023-05-18T16:45:10.939Z,101100.94
2023-05-18T16:47:12.552Z,101097.59
2023-05-18T16:49:14.137Z,101096.81
2023-05-18T16:51:15.770Z,101101.97
2023-05-18T16:53:17.523Z,101096.09
2023-05-18T16:55:19.365Z,101100.91
2023-05-18T16:57:21.070Z,101106.25
2023-05-18T16:59:24.125Z,101109.31
2023-05-18T17:01:28.637Z,101108.44
2023-05-18T17:03:31.003Z,101108.94
2023-05-18T17:05:32.987Z,101111.03
2023-05-18T17:07:35.203Z,101108.53
2023-05-18T17:09:37.033Z,101118.09
2023-05-18T17:11:38.745Z,101112.56
2023-05-18T17:13:40.385Z,101112.56
2023-05-18T17:15:43.680Z,101114.44
2023-05-18T17:17:45.342Z,101110.41
2023-05-18T17:19:47.024Z,101113.19
2023-05-18T17:21:48.864Z,101117.41
2023-05-18T17:23:50.588Z,101120.72
2023-05-18T17:25:55.243Z,101116.22
2023-05-18T17:28:02.655Z,101116.38
2023-05-18T17:30:05.334Z,101120.41
2023-05-18T17:32:08.383Z,101119.63
2023-05-18T17:34:10.012Z,101111.69
2023-05-18T17:36:11.691Z,101110.00
2023-05-18T17:38:13.269Z,101122.44
2023-05-18T17:40:14.942Z,101116.53
2023-05-18T17:42:16.633Z,101112.00
2023-05-18T17:44:18.520Z,101116.53
2023-05-18T17:46:20.273Z,101114.19
2023-05-18T17:48:23.600Z,101119.16
2023-05-18T17:50:25.220Z,101116.50
2023-05-18T17:52:26.848Z,101116.41
2023-05-18T17:54:28.538Z,101113.16
2023-05-18T17:56:30.285Z,101114.09
2023-05-18T17:58:31.861Z,101117.16
2023-05-18T18:00:33.660Z,101116.19
2023-05-18T18:02:35.374Z,101109.63
2023-05-18T18:04:38.380Z,101121.19
2023-05-18T18:06:40.153Z,101120.38
2023-05-18T18:08:41.819Z,101123.72
2023-05-18T18:10:43.480Z,101127.81
2023-05-18T18:12:45.197Z,101127.19
2023-05-18T18:14:46.900Z,101125.28
2023-05-18T18:16:48.618Z,101125.94
2023-05-18T18:18:50.724Z,101133.00
2023-05-18T18:20:53.699Z,101130.44
2023-05-18T18:22:55.242Z,101132.31
2023-05-18T18:24:57.001Z,101128.34
2023-05-18T18:27:04.506Z,101129.81
2023-05-18T18:29:06.331Z,101134.19
2023-05-18T18:31:10.849Z,101136.78
2023-05-18T18:33:12.960Z,101136.31
2023-05-18T18:35:14.873Z,101137.75
2023-05-18T18:37:18.301Z,101136.00
2023-05-18T18:39:19.968Z,101140.66
2023-05-18T18:41:21.763Z,101140.72
2023-05-18T18:43:23.416Z,101137.50
2023-05-18T18:45:25.096Z,101148.47
2023-05-18T18:47:27.023Z,101139.41
2023-05-18T18:49:28.709Z,101140.53
2023-05-18T18:51:30.389Z,101142.00
2023-05-18T18:53:33.481Z,101144.88
2023-05-18T18:55:35.187Z,101147.47
2023-05-18T18:57:39.193Z,101148.13
2023-05-18T18:59:40.832Z,101152.16
2023-05-18T19:01:42.852Z,101149.09
2023-05-18T19:03:44.513Z,101148.94
2023-05-18T19:05:46.198Z,101154.91
2023-05-18T19:07:47.932Z,101149.94
2023-05-18T19:09:50.861Z,101154.13
2023-05-18T19:11:52.494Z,101158.31
2023-05-18T19:13:54.171Z,101165.06
2023-05-18T19:15:56.107Z,101160.59
2023-05-18T19:17:57.980Z,101157.38
2023-05-18T19:19:59.714Z,101159.13
2023-05-18T19:22:01.354Z,101167.50
2023-05-18T19:24:03.178Z,101167.66
2023-05-18T19:26:06.283Z,101168.16
2023-05-18T19:28:08.005Z,101171.19
2023-05-18T19:30:10.279Z,101167.78
2023-05-18T19:32:12.139Z,101169.72
2023-05-18T19:34:13.825Z,101172.00
2023-05-18T19:36:15.711Z,101170.53
2023-05-18T19:38:17.592Z,101179.84
2023-05-18T19:40:19.593Z,101176.19
2023-05-18T19:42:22.834Z,101176.31
2023-05-18T19:44:24.466Z,101173.56
2023-05-18T19:46:26.176Z,101172.63
2023-05-18T19:48:27.982Z,101179.50
2023-05-18T19:50:29.640Z,101173.88
2023-05-18T19:52:31.375Z,101179.03
2023-05-18T19:54:33.208Z,101180.75
2023-05-18T19:56:35.435Z,101188.50
2023-05-18T19:58:38.759Z,101190.94
2023-05-18T20:00:41.206Z,101179.03
2023-05-18T20:02:43.963Z,101186.06
2023-05-18T20:04:45.654Z,101188.16
2023-05-18T20:06:48.245Z,101193.47
2023-05-18T20:08:49.993Z,101193.63
2023-05-18T20:10:51.623Z,101199.88
2023-05-18T20:12:53.351Z,101194.25
2023-05-18T20:14:56.460Z,101200.06
2023-05-18T20:16:58.567Z,101203.25
2023-05-18T20:19:00.590Z,101196.25
2023-05-18T20:21:02.362Z,101200.06
2023-05-18T20:23:04.110Z,101196.06
2023-05-18T20:25:07.050Z,101199.06
2023-05-18T20:27:08.745Z,101200.91
2023-05-18T20:29:10.512Z,101202.34
2023-05-18T20:31:13.536Z,101200.75
2023-05-18T20:33:15.272Z,101206.03
2023-05-18T20:35:16.965Z,101207.75
2023-05-18T20:37:18.742Z,101207.75
2023-05-18T20:39:20.533Z,101209.34
2023-05-18T20:41:22.103Z,101210.25
2023-05-18T20:43:23.838Z,101206.22
2023-05-18T20:45:25.569Z,101212.94
2023-05-18T20:47:28.570Z,101218.22
2023-05-18T20:49:30.309Z,101212.09
2023-05-18T20:51:32.012Z,101213.06
2023-05-18T20:53:33.648Z,101211.25
2023-05-18T20:55:35.345Z,101214.75
2023-05-18T20:57:37.077Z,101218.06
2023-05-18T20:59:38.706Z,101207.72
2023-05-18T21:01:40.407Z,101223.25
2023-05-18T21:03:43.768Z,101224.69
2023-05-18T21:05:45.610Z,101212.59
2023-05-18T21:07:47.269Z,101212.47
2023-05-18T21:09:48.909Z,101216.81
2023-05-18T21:11:50.575Z,101216.91
2023-05-18T21:13:52.476Z,101216.31
2023-05-18T21:15:54.210Z,101212.66
2023-05-18T21:17:55.994Z,101216.56
2023-05-18T21:19:59.415Z,101214.03
2023-05-18T21:22:01.308Z,101212.59
2023-05-18T21:24:03.198Z,101214.63
2023-05-18T21:26:05.069Z,101217.88
2023-05-18T21:28:06.888Z,101215.75
2023-05-18T21:30:10.025Z,101208.06
2023-05-18T21:32:12.054Z,101214.13
2023-05-18T21:34:13.823Z,101210.91
2023-05-18T21:36:19.219Z,101213.53
2023-05-18T21:38:20.886Z,101216.56
2023-05-18T21:40:22.764Z,101212.34
2023-05-18T21:42:24.377Z,101210.44
2023-05-18T21:44:26.200Z,101205.78
2023-05-18T21:46:28.455Z,101211.56
2023-05-18T21:48:30.151Z,101216.88
2023-05-18T21:50:32.026Z,101211.66
2023-05-18T21:52:35.219Z,101215.63
2023-05-18T21:54:36.902Z,101208.06
2023-05-18T21:56:38.609Z,101206.81
2023-05-18T21:58:40.332Z,101206.81
2023-05-18T22:00:42.031Z,101207.31
2023-05-18T22:02:43.846Z,101207.88
2023-05-18T22:04:45.517Z,101214.94
2023-05-18T22:06:47.331Z,101207.88
2023-05-18T22:08:50.551Z,101210.59
2023-05-18T22:10:52.254Z,101208.59
2023-05-18T22:12:53.860Z,101212.44
2023-05-18T22:14:55.605Z,101209.72
2023-05-18T22:16:57.317Z,101204.97
2023-05-18T22:18:59.060Z,101203.06
2023-05-18T22:21:00.716Z,101205.97
2023-05-18T22:23:02.385Z,101198.00
2023-05-18T22:25:06.316Z,101203.69
2023-05-18T22:27:08.204Z,101194.72
2023-05-18T22:29:09.962Z,101203.72
2023-05-18T22:31:11.912Z,101203.22
2023-05-18T22:33:13.624Z,101200.38
2023-05-18T22:35:15.735Z,101195.06
2023-05-18T22:37:17.586Z,101199.16
2023-05-18T22:39:19.356Z,101203.09
2023-05-18T22:41:22.922Z,101197.94
2023-05-18T22:43:24.540Z,101203.41
2023-05-18T22:45:26.238Z,101200.28
2023-05-18T22:47:28.077Z,101201.31
2023-05-18T22:49:29.646Z,101198.97
2023-05-18T22:51:31.188Z,101198.47
2023-05-18T22:53:33.082Z,101194.31
2023-05-18T22:55:34.804Z,101196.56
2023-05-18T22:57:37.892Z,101193.31
2023-05-18T22:59:39.560Z,101202.69
2023-05-18T23:01:41.448Z,101200.47
2023-05-18T23:03:43.149Z,101196.34
2023-05-18T23:05:44.909Z,101194.72
2023-05-18T23:07:46.531Z,101194.53
2023-05-18T23:09:48.245Z,101191.69
2023-05-18T23:11:49.876Z,101194.41
2023-05-18T23:13:52.880Z,101196.22
2023-05-18T23:15:54.543Z,101194.13
2023-05-18T23:17:56.350Z,101195.31
2023-05-18T23:19:59.010Z,101187.88
2023-05-18T23:22:00.633Z,101187.97